Alamo, CA (94507)

4:53 PM PDT on July 30, 2016 (GMT -0700)
Alamo | | Change Station

Elev 318 ft 37.85 °N, 122.02 °W | Updated 1 minute ago

Clear
Clear
96.6 °F
Feels Like 95 °F
N
0.0
Wind Variable Wind from West

Today
High -- | Low -- °F
--% Chance of Precip.
Yesterday
High -- | Low -- °F
Precip. -- in
Pressure 29.72 in
Visibility 10.0 miles
Clouds Clear
Heat Index 95 °F
Dew Point 55 °F
Humidity 25%
Rainfall 0.00 in
Snow Depth Not available.
6:10 AM 8:18 PM
Waning Crescent, 10% visible
METAR KCCR 302253Z 26012KT 10SM CLR 34/02 A2976 RMK AO2 SLP064 T03390022 $
Pressure 29.72 in
Visibility 10.0 miles
Clouds Clear
Heat Index 95 °F
Dew Point 55 °F
Humidity 25%
Rainfall 0.00 in
Snow Depth Not available.
6:10 AM 8:18 PM
Waning Crescent, 10% visible
METAR KCCR 302253Z 26012KT 10SM CLR 34/02 A2976 RMK AO2 SLP064 T03390022 $

10-Day Weather Forecast

Almanac

Astronomy

Jul. 30, 2016 Rise Set
Actual Time
Civil Twilight
Nautical Twilight
Astronomical Twilight
Moon
Length of Visible Light
Length of Day
Tomorrow will be .
, % of the Moon is Illuminated

Today's Extremes

State Highs State Lows

Community

WunderPhotos

Upload Photos

1,928,680 photos uploaded!

WunderBlog® & News

Nearby

Air Quality

  Air Quality AQ Index Pollutant
Not available.

Snow Depth

Station Depth Elevation

Earthquake Activity

City Distance Mag. Time & Date
Minimum magnitude displayed is 2.5.

Coastal Water Temperatures

Place Temperature

Stations

Nearby Weather Stations

Station Location Temp. Windchill Dew Point Humidity Wind Precip. Elev Updated Type
                   

Watches & Warnings

There are currently no watches in effect.